Latest Weather Observations for Middle Point

IDD60901

Issued at 10:31 am CST Sunday 26 February 2017 (issued every 10 minutes, with the page automatically refreshed every 10 minutes)

About weather observations | Map of Darwin area stations | Latest observations for Darwin area | Other Formats
Station Details ID: 014041 Name: MIDDLE POINT Lat: -12.61 Lon: 131.30 Height: 14.1 m
Data from the previous 72 hours. | See also: Recent months at Middle Point
Date/Time
CST
Temp
°C
App
Temp
°C
Dew
Point
°C
Rel
Hum
%
Delta-T
°C
Wind Press
QNH
hPa
Press
MSL
hPa
Rain since
9am
mm
Dir  Spd
km/h
Gust
km/h
Spd
kts
Gust
kts
26/10:00am 30.0 33.7 23.9 70 4.2 S 11 15 6 8 1008.9 1008.8 0.0
26/09:30am 28.8 32.5 23.2 71 3.8 S 9 15 5 8 1009.0 1008.9 0.0
26/09:00am 27.7 30.8 23.5 78 2.9 S 13 17 7 9 1008.9 1008.8 0.8
26/08:30am 27.3 31.2 24.2 83 2.1 S 11 15 6 8 1008.9 1008.8 0.8
26/08:00am 26.5 30.4 24.2 87 1.6 S 11 15 6 8 1008.6 1008.5 0.8
26/07:30am 25.9 30.8 24.3 91 1.1 S 6 7 3 4 1008.6 1008.5 0.8
26/07:00am 25.2 30.2 24.5 96 0.5 SSE 6 7 3 4 1008.5 1008.4 0.8
26/06:30am 25.2 30.3 24.9 98 0.2 SE 7 11 4 6 1008.3 1008.2 0.8
26/06:00am 25.0 30.3 24.3 96 0.5 SSE 4 4 2 2 1007.8 1007.7 0.8
26/05:30am 25.3 31.4 24.4 95 0.6 CALM 0 2 0 1 1007.7 1007.6 0.8
26/05:00am 25.5 30.7 24.8 96 0.5 SSE 6 7 3 4 1007.8 1007.7 0.8
26/04:30am 25.9 31.6 25.0 95 0.6 S 4 7 2 4 1008.0 1007.9 0.8
26/04:00am 26.2 31.3 25.5 96 0.5 SSE 9 11 5 6 1008.1 1008.0 0.8
26/03:30am 26.3 31.0 24.9 92 1.0 S 9 11 5 6 1008.2 1008.1 0.6
26/03:00am 26.6 32.8 25.2 92 1.0 SSE 2 7 1 4 1008.7 1008.6 0.0
26/02:30am 26.5 32.4 25.3 93 0.8 SSE 4 6 2 3 1009.0 1008.9 0.0
26/02:00am 26.6 32.0 25.4 93 0.8 SSE 7 9 4 5 1009.2 1009.1 0.0
26/01:30am 26.4 31.8 25.2 93 0.8 SSE 6 7 3 4 1009.2 1009.1 0.0
26/01:00am 26.1 31.9 25.2 95 0.6 ESE 4 6 2 3 1009.2 1009.1 0.0
26/12:30am 25.7 30.9 24.8 95 0.6 ENE 6 11 3 6 1009.4 1009.3 0.0
26/12:00am 25.8 31.4 24.8 94 0.7 W 4 6 2 3 1009.4 1009.3 0.0
 
Date/Time
CST
Temp
°C
App
Temp
°C
Dew
Point
°C
Rel
Hum
%
Delta-T
°C
Wind Press
QNH
hPa
Press
MSL
hPa
Rain since
9am
mm
Dir  Spd
km/h
Gust
km/h
Spd
kts
Gust
kts
25/11:30pm 25.7 30.9 24.8 95 0.6 WNW 6 6 3 3 1009.6 1009.5 0.0
25/11:00pm 26.3 32.6 25.4 95 0.6 W 2 4 1 2 1009.9 1009.8 0.0
25/10:30pm 26.2 32.7 25.0 93 0.8 CALM 0 2 0 1 1009.9 1009.8 0.0
25/10:00pm 26.3 32.3 24.9 92 1.0 WNW 2 4 1 2 1009.8 1009.7 0.0
25/09:30pm 26.8 33.1 25.4 92 1.0 WNW 2 4 1 2 1009.4 1009.3 0.0
25/09:00pm 26.7 32.2 25.3 92 1.0 WNW 6 7 3 4 1009.0 1008.9 0.0
25/08:30pm 27.1 33.0 25.3 90 1.3 WNW 4 4 2 2 1008.7 1008.6 0.0
25/08:00pm 27.7 34.2 25.7 89 1.4 W 2 4 1 2 1008.6 1008.5 0.0
25/07:30pm 27.9 33.5 25.5 87 1.7 W 6 6 3 3 1008.2 1008.1 0.0
25/07:00pm 28.4 33.7 25.0 82 2.4 NW 6 7 3 4 1007.8 1007.7 0.0
25/06:30pm 29.3 34.7 25.1 78 3.0 WNW 6 9 3 5 1007.2 1007.1 0.0
25/06:00pm 29.6 34.2 24.7 75 3.4 WNW 9 15 5 8 1006.9 1006.8 0.0
25/05:30pm 30.2 33.6 24.6 72 3.9 W 15 17 8 9 1006.8 1006.7 0.0
25/05:00pm 31.3 34.2 24.4 66 4.8 WNW 17 22 9 12 1007.0 1006.9 0.0
25/04:30pm 31.4 34.2 24.3 66 5.0 W 17 28 9 15 1007.3 1007.2 0.0
25/04:00pm 31.6 35.6 25.0 68 4.7 WNW 13 20 7 11 1007.1 1007.0 0.0
25/03:30pm 31.3 34.8 24.2 66 5.0 NW 13 17 7 9 1007.4 1007.3 0.0
25/03:00pm 32.6 36.8 23.5 58 6.3 W 7 13 4 7 1007.7 1007.6 0.0
25/02:30pm 32.8 37.3 23.7 58 6.3 SSE 6 7 3 4 1008.2 1008.1 0.0
25/02:00pm 34.2 39.2 24.5 57 6.8 WNW 6 13 3 7 1008.4 1008.3 0.0
25/01:30pm 32.6 35.9 23.8 59 6.1 WNW 13 19 7 10 1009.0 1008.9 0.0
25/01:00pm 32.7 37.4 23.3 57 6.5 SE 4 7 2 4 1009.7 1009.6 0.0
25/12:30pm 32.7 36.8 23.3 57 6.5 SE 7 11 4 6 1010.0 1009.9 0.0
25/12:00pm 32.6 37.0 23.5 58 6.3 SE 6 13 3 7 1010.7 1010.6 0.0
25/11:30am 32.8 36.9 22.9 56 6.8 ESE 6 11 3 6 1011.2 1011.0 0.0
25/11:00am 31.2 36.3 24.6 68 4.6 SE 6 9 3 5 1011.5 1011.3 0.0
25/10:30am 31.3 36.2 24.4 66 4.8 SSE 6 11 3 6 1011.8 1011.6 0.0
25/10:00am 31.0 37.1 25.1 71 4.2 ESE 2 6 1 3 1011.8 1011.6 0.0
25/09:30am 29.8 35.8 24.9 75 3.4 N 2 6 1 3 1012.0 1011.8 0.0
25/09:00am 29.3 35.8 25.1 78 3.0 CALM 0 0 0 0 1011.9 1011.7 1.4
25/08:30am 28.5 35.3 25.5 84 2.1 CALM 0 0 0 0 1011.6 1011.4 1.4
25/08:00am 26.9 34.2 26.9 100 0.0 SE 2 4 1 2 1011.2 1011.0 1.4
25/07:30am 25.6 32.4 25.6 100 0.0 CALM 0 0 0 0 1010.9 1010.7 1.4
25/07:00am 24.5 30.5 24.3 99 0.1 CALM 0 0 0 0 1010.6 1010.5 1.4
25/06:30am 24.3 30.1 24.0 98 0.2 CALM 0 0 0 0 1010.3 1010.2 1.4
25/06:00am 24.6 30.7 24.4 99 0.1 CALM 0 0 0 0 1010.1 1010.0 1.4
25/05:30am 24.5 30.5 24.3 99 0.1 CALM 0 0 0 0 1009.7 1009.6 1.2
25/05:00am 24.4 30.3 24.1 98 0.2 CALM 0 0 0 0 1009.5 1009.4 1.2
25/04:30am 24.5 30.5 24.2 98 0.2 CALM 0 0 0 0 1009.3 1009.2 1.2
25/04:00am 24.8 30.9 24.5 98 0.2 CALM 0 0 0 0 1009.0 1008.9 1.2
25/03:30am 24.7 30.7 24.2 97 0.3 CALM 0 0 0 0 1009.1 1009.0 1.2
25/03:00am 25.0 31.3 24.7 98 0.2 CALM 0 0 0 0 1009.2 1009.1 1.2
25/02:30am 24.9 30.0 24.6 98 0.2 NNE 6 6 3 3 1009.5 1009.4 1.2
25/02:00am 24.8 30.9 24.5 98 0.2 CALM 0 0 0 0 1009.9 1009.8 1.2
25/01:30am 25.1 31.1 24.8 98 0.2 NE 2 4 1 2 1010.2 1010.1 1.2
25/01:00am 25.2 30.7 24.7 97 0.3 ENE 4 4 2 2 1010.5 1010.4 1.2
25/12:30am 25.5 31.6 25.0 97 0.3 SSW 2 6 1 3 1010.7 1010.6 1.2
25/12:00am 25.7 32.2 25.0 96 0.5 CALM 0 0 0 0 1011.1 1010.9 1.2
 
Date/Time
CST
Temp
°C
App
Temp
°C
Dew
Point
°C
Rel
Hum
%
Delta-T
°C
Wind Press
QNH
hPa
Press
MSL
hPa
Rain since
9am
mm
Dir  Spd
km/h
Gust
km/h
Spd
kts
Gust
kts
24/11:30pm 25.8 31.9 25.1 96 0.5 SW 2 2 1 1 1011.0 1010.8 1.2
24/11:00pm 26.3 32.6 25.4 95 0.6 SW 2 4 1 2 1011.1 1010.9 1.2
24/10:30pm 26.3 32.2 25.4 95 0.6 NW 4 6 2 3 1010.4 1010.3 1.2
24/10:00pm 26.2 31.7 25.3 95 0.6 NNW 6 6 3 3 1009.9 1009.8 1.2
24/09:30pm 26.1 31.5 25.2 95 0.6 NW 6 6 3 3 1009.9 1009.8 1.2
24/09:00pm 26.2 31.5 25.3 95 0.6 N 7 9 4 5 1009.7 1009.6 1.2
24/08:30pm 26.1 31.5 25.2 95 0.6 N 6 7 3 4 1009.4 1009.3 1.2
24/08:00pm 26.3 31.9 24.9 92 1.0 N 4 4 2 2 1009.7 1009.6 1.2
24/07:30pm 26.1 30.9 24.1 89 1.4 N 6 7 3 4 1009.1 1009.0 1.2
24/07:00pm 28.0 30.1 22.5 72 3.7 N 15 20 8 11 1009.4 1009.3 0.0
24/06:30pm 31.3 36.4 25.6 71 4.1 NW 9 13 5 7 1008.7 1008.6 0.0
24/06:00pm 31.8 37.2 25.2 68 4.7 N 6 9 3 5 1008.2 1008.1 0.0
24/05:30pm 32.0 36.3 24.3 63 5.4 NNW 9 13 5 7 1008.1 1008.0 0.0
24/05:00pm 32.7 36.9 24.7 62 5.6 N 11 15 6 8 1008.0 1007.9 0.0
24/04:30pm 32.4 37.1 25.0 65 5.2 N 9 15 5 8 1008.1 1008.0 0.0
24/04:00pm 32.1 37.0 25.2 67 4.9 NNW 9 15 5 8 1008.0 1007.9 0.0
24/03:30pm 31.6 36.9 25.9 72 4.1 N 9 13 5 7 1007.9 1007.8 0.0
24/03:00pm 31.0 36.1 24.9 70 4.3 NNW 7 11 4 6 1008.3 1008.2 0.0
24/02:30pm 31.1 36.3 25.7 73 3.8 NNE 9 15 5 8 1008.9 1008.8 0.0
24/02:00pm 29.9 35.6 25.9 79 2.8 NE 7 11 4 6 1009.3 1009.2 0.0
24/01:30pm 30.0 35.9 26.2 80 2.7 NE 7 13 4 7 1009.8 1009.7 0.0
24/01:00pm 29.8 35.3 26.2 81 2.6 NE 9 13 5 7 1010.3 1010.2 0.0
24/12:30pm 29.7 35.3 25.7 79 2.8 NE 7 13 4 7 1011.0 1010.8 0.0
24/12:00pm 29.6 35.4 26.0 81 2.6 NE 7 11 4 6 1011.2 1011.0 0.0
24/11:30am 29.2 34.5 25.2 79 2.8 NNE 7 9 4 5 1011.5 1011.3 0.0
24/11:00am 29.4 34.3 25.2 78 3.0 NE 9 13 5 7 1011.7 1011.5 0.0
24/10:30am 28.8 33.0 24.8 79 2.8 NE 11 15 6 8 1011.7 1011.5 0.0
24/10:00am 28.6 33.0 25.0 81 2.5 ENE 11 15 6 8 1011.8 1011.6 0.0
24/09:30am 28.7 33.7 26.5 88 1.6 NNE 13 19 7 10 1011.7 1011.5 0.0
24/09:00am 28.5 35.6 27.6 95 0.7 N 6 7 3 4 1011.6 1011.4 0.0
24/08:30am 27.9 34.1 27.2 96 0.5 ENE 9 13 5 7 1011.6 1011.4 0.0
24/08:00am 27.6 34.3 27.1 97 0.4 ENE 6 9 3 5 1011.4 1011.2 0.0
24/07:30am 27.3 33.6 26.8 97 0.4 NE 7 9 4 5 1011.0 1010.8 0.0
24/07:00am 27.1 33.5 26.6 97 0.4 ESE 6 7 3 4 1010.9 1010.7 0.0
24/06:30am 26.9 33.1 26.4 97 0.4 E 6 7 3 4 1010.3 1010.2 0.0
24/06:00am 26.7 33.9 26.2 97 0.4 CALM 0 0 0 0 1009.8 1009.7 0.0
24/05:30am 26.6 32.5 25.9 96 0.5 NW 6 6 3 3 1009.0 1008.9 0.0
24/05:00am 26.7 32.5 26.0 96 0.5 NW 7 9 4 5 1008.5 1008.4 0.0
24/04:30am 26.7 32.7 26.0 96 0.5 NW 6 7 3 4 1008.7 1008.6 0.0
24/04:00am 26.8 32.8 26.1 96 0.5 NNW 6 9 3 5 1008.8 1008.7 0.0
24/03:30am 26.7 32.0 25.8 95 0.6 NW 9 11 5 6 1007.9 1007.8 0.0
24/03:00am 26.8 32.8 26.1 96 0.5 NW 6 9 3 5 1008.3 1008.2 0.0
24/02:30am 26.7 32.5 26.0 96 0.5 NW 7 9 4 5 1008.5 1008.4 0.0
24/02:00am 26.8 32.5 25.9 95 0.6 NNW 7 9 4 5 1008.7 1008.6 0.0
24/01:30am 26.8 32.5 25.9 95 0.6 NNW 7 9 4 5 1008.8 1008.7 0.0
24/01:00am 26.9 32.6 25.9 94 0.7 NW 7 9 4 5 1009.1 1009.0 0.0
24/12:30am 27.1 32.8 25.9 93 0.8 NNW 7 11 4 6 1009.4 1009.3 0.0
24/12:00am 27.3 32.8 26.1 93 0.9 NNW 9 13 5 7 1009.5 1009.4 0.0
 
Date/Time
CST
Temp
°C
App
Temp
°C
Dew
Point
°C
Rel
Hum
%
Delta-T
°C
Wind Press
QNH
hPa
Press
MSL
hPa
Rain since
9am
mm
Dir  Spd
km/h
Gust
km/h
Spd
kts
Gust
kts
23/11:30pm 27.3 33.1 26.1 93 0.9 NNW 7 9 4 5 1009.6 1009.5 0.0
23/11:00pm 27.6 33.2 25.8 90 1.3 NNW 7 11 4 6 1009.4 1009.3 0.0
23/10:30pm 28.1 33.3 25.7 87 1.7 NW 9 13 5 7 1008.9 1008.8 0.0
23/10:00pm 28.4 33.4 26.0 87 1.7 WNW 11 15 6 8 1008.5 1008.4 0.0
23/09:30pm 28.4 33.9 26.2 88 1.6 NW 9 11 5 6 1008.3 1008.2 0.0
23/09:00pm 28.6 34.4 26.6 89 1.4 NW 9 11 5 6 1007.9 1007.8 0.0
23/08:30pm 28.9 34.6 26.5 87 1.7 NNW 9 13 5 7 1007.5 1007.4 0.0
23/08:00pm 29.6 34.9 26.4 83 2.3 NW 11 15 6 8 1007.3 1007.2 0.0
23/07:30pm 30.1 35.0 25.8 78 3.1 NNW 11 15 6 8 1007.0 1006.9 0.0
23/07:00pm 31.3 36.3 25.4 71 4.2 NW 9 15 5 8 1006.6 1006.5 0.0
23/06:30pm 34.4 40.4 24.9 57 6.7 NNE 2 4 1 2 1006.2 1006.1 0.0
23/06:00pm 35.3 38.8 21.9 45 9.2 NE 6 7 3 4 1006.1 1006.0 0.0
23/05:30pm 36.1 38.6 19.1 36 11.3 ENE 4 7 2 4 1005.9 1005.8 0.0
23/05:00pm 36.4 39.1 19.4 37 11.3 SE 4 7 2 4 1005.7 1005.6 0.0
23/04:30pm 36.5 39.4 21.1 40 10.5 E 7 9 4 5 1005.8 1005.7 0.0
23/04:00pm 36.5 40.0 21.1 40 10.5 SE 4 11 2 6 1005.7 1005.6 0.0
23/03:30pm 36.3 38.1 18.4 35 11.8 S 6 9 3 5 1005.9 1005.8 0.0
23/03:00pm 36.7 38.9 19.6 36 11.4 S 7 15 4 8 1006.1 1006.0 0.0
23/02:30pm 36.3 37.7 17.9 33 12.0 S 7 15 4 8 1006.4 1006.3 0.0
23/02:00pm 35.7 37.5 19.6 39 10.7 S 9 15 5 8 1006.8 1006.7 0.0
23/01:30pm 35.3 36.9 19.2 38 10.7 S 9 15 5 8 1007.4 1007.3 0.0
23/01:00pm 35.2 37.2 19.1 38 10.6 S 7 11 4 6 1007.9 1007.8 0.0
23/12:30pm 34.9 37.1 20.5 43 9.7 S 9 17 5 9 1008.5 1008.4 0.0
23/12:00pm 34.3 37.5 21.7 47 8.6 SW 7 15 4 8 1008.9 1008.8 0.0
23/11:30am 33.7 36.7 21.2 48 8.5 W 7 15 4 8 1009.1 1009.0 0.0
23/11:00am 32.8 37.3 24.0 60 6.1 SW 7 11 4 6 1009.5 1009.4 0.0

Latest Capital City Observations: Canberra | Sydney | Melbourne | Brisbane | Adelaide | Perth | Hobart | Darwin

Other Formats:

Comma delimited format used in spreadsheet applications
http://www.bom.gov.au/fwo/IDD60901/IDD60901.95121.axf

JavaScript Object Notation format (JSON) in row-major order
http://www.bom.gov.au/fwo/IDD60901/IDD60901.95121.json